sensor_id;sensor_type;location;lat;lon;timestamp;temperature;humidity
32215;DHT22;18708;53.124;23.190;2024-02-21T00:00:58;3.40;99.90
32215;DHT22;18708;53.124;23.190;2024-02-21T00:03:23;3.40;99.90
32215;DHT22;18708;53.124;23.190;2024-02-21T00:05:49;3.40;99.90
32215;DHT22;18708;53.124;23.190;2024-02-21T00:08:15;3.40;99.90
32215;DHT22;18708;53.124;23.190;2024-02-21T00:10:40;3.40;99.90
32215;DHT22;18708;53.124;23.190;2024-02-21T00:13:06;3.40;99.90
32215;DHT22;18708;53.124;23.190;2024-02-21T00:15:32;3.40;99.90
32215;DHT22;18708;53.124;23.190;2024-02-21T00:17:57;3.40;99.90
32215;DHT22;18708;53.124;23.190;2024-02-21T00:20:23;3.30;99.90
32215;DHT22;18708;53.124;23.190;2024-02-21T00:22:50;3.30;99.90
32215;DHT22;18708;53.124;23.190;2024-02-21T00:25:16;3.30;99.90
32215;DHT22;18708;53.124;23.190;2024-02-21T00:27:42;3.30;99.90
32215;DHT22;18708;53.124;23.190;2024-02-21T00:30:08;3.30;99.90
32215;DHT22;18708;53.124;23.190;2024-02-21T00:32:34;3.30;99.90
32215;DHT22;18708;53.124;23.190;2024-02-21T00:35:00;3.30;99.90
32215;DHT22;18708;53.124;23.190;2024-02-21T00:37:26;3.40;99.90
32215;DHT22;18708;53.124;23.190;2024-02-21T00:39:56;3.30;99.90
32215;DHT22;18708;53.124;23.190;2024-02-21T00:42:21;3.30;99.90
32215;DHT22;18708;53.124;23.190;2024-02-21T00:44:47;3.30;99.90
32215;DHT22;18708;53.124;23.190;2024-02-21T00:47:13;3.30;99.90
32215;DHT22;18708;53.124;23.190;2024-02-21T00:49:38;3.30;99.90
32215;DHT22;18708;53.124;23.190;2024-02-21T00:52:04;3.30;99.90
32215;DHT22;18708;53.124;23.190;2024-02-21T00:54:30;3.30;99.90
32215;DHT22;18708;53.124;23.190;2024-02-21T00:56:55;3.30;99.90
32215;DHT22;18708;53.124;23.190;2024-02-21T00:59:21;3.30;99.90
32215;DHT22;18708;53.124;23.190;2024-02-21T01:01:47;3.30;99.90
32215;DHT22;18708;53.124;23.190;2024-02-21T01:04:12;3.20;99.90
32215;DHT22;18708;53.124;23.190;2024-02-21T01:06:38;3.30;99.90
32215;DHT22;18708;53.124;23.190;2024-02-21T01:09:04;3.30;99.90
32215;DHT22;18708;53.124;23.190;2024-02-21T01:11:29;3.30;99.90
32215;DHT22;18708;53.124;23.190;2024-02-21T01:13:55;3.20;99.90
32215;DHT22;18708;53.124;23.190;2024-02-21T01:16:21;3.20;99.90
32215;DHT22;18708;53.124;23.190;2024-02-21T01:18:47;3.20;99.90
32215;DHT22;18708;53.124;23.190;2024-02-21T01:21:12;3.20;99.90
32215;DHT22;18708;53.124;23.190;2024-02-21T01:23:38;3.20;99.90
32215;DHT22;18708;53.124;23.190;2024-02-21T01:26:04;3.30;99.90
32215;DHT22;18708;53.124;23.190;2024-02-21T01:28:30;3.30;99.90
32215;DHT22;18708;53.124;23.190;2024-02-21T01:30:57;3.30;99.90
32215;DHT22;18708;53.124;23.190;2024-02-21T01:33:25;3.20;99.90
32215;DHT22;18708;53.124;23.190;2024-02-21T01:35:50;3.30;99.90
32215;DHT22;18708;53.124;23.190;2024-02-21T01:38:16;3.30;99.90
32215;DHT22;18708;53.124;23.190;2024-02-21T01:40:42;3.30;99.90
32215;DHT22;18708;53.124;23.190;2024-02-21T01:43:18;3.20;99.90
32215;DHT22;18708;53.124;23.190;2024-02-21T01:45:48;3.20;99.90
32215;DHT22;18708;53.124;23.190;2024-02-21T01:48:14;3.20;99.90
32215;DHT22;18708;53.124;23.190;2024-02-21T01:50:40;3.20;99.90
32215;DHT22;18708;53.124;23.190;2024-02-21T01:53:06;3.20;99.90
32215;DHT22;18708;53.124;23.190;2024-02-21T01:55:33;3.30;99.90
32215;DHT22;18708;53.124;23.190;2024-02-21T01:57:59;3.20;99.90
32215;DHT22;18708;53.124;23.190;2024-02-21T02:00:26;3.20;99.90
32215;DHT22;18708;53.124;23.190;2024-02-21T02:02:51;3.20;99.90
32215;DHT22;18708;53.124;23.190;2024-02-21T02:05:18;3.20;99.90
32215;DHT22;18708;53.124;23.190;2024-02-21T02:07:46;3.20;99.90
32215;DHT22;18708;53.124;23.190;2024-02-21T02:10:12;3.30;99.90
32215;DHT22;18708;53.124;23.190;2024-02-21T02:12:38;3.30;99.90
32215;DHT22;18708;53.124;23.190;2024-02-21T02:15:04;3.30;99.90
32215;DHT22;18708;53.124;23.190;2024-02-21T02:17:32;3.40;99.90
32215;DHT22;18708;53.124;23.190;2024-02-21T02:19:58;3.40;99.90
32215;DHT22;18708;53.124;23.190;2024-02-21T02:22:28;3.30;99.90
32215;DHT22;18708;53.124;23.190;2024-02-21T02:24:55;3.40;99.90
32215;DHT22;18708;53.124;23.190;2024-02-21T02:27:21;3.40;99.90
32215;DHT22;18708;53.124;23.190;2024-02-21T02:29:48;3.40;99.90
32215;DHT22;18708;53.124;23.190;2024-02-21T02:32:14;3.30;99.90
32215;DHT22;18708;53.124;23.190;2024-02-21T02:34:40;3.30;99.90
32215;DHT22;18708;53.124;23.190;2024-02-21T02:37:05;3.20;99.90
32215;DHT22;18708;53.124;23.190;2024-02-21T02:39:31;3.20;99.90
32215;DHT22;18708;53.124;23.190;2024-02-21T02:41:57;3.30;99.90
32215;DHT22;18708;53.124;23.190;2024-02-21T02:44:25;3.30;99.90
32215;DHT22;18708;53.124;23.190;2024-02-21T02:46:50;3.30;99.90
32215;DHT22;18708;53.124;23.190;2024-02-21T02:49:16;3.30;99.90
32215;DHT22;18708;53.124;23.190;2024-02-21T02:51:44;3.30;99.90
32215;DHT22;18708;53.124;23.190;2024-02-21T02:54:11;3.20;99.90
32215;DHT22;18708;53.124;23.190;2024-02-21T02:56:36;3.30;99.90
32215;DHT22;18708;53.124;23.190;2024-02-21T02:59:02;3.30;99.90
32215;DHT22;18708;53.124;23.190;2024-02-21T03:01:28;3.20;99.90
32215;DHT22;18708;53.124;23.190;2024-02-21T03:03:54;3.30;99.90
32215;DHT22;18708;53.124;23.190;2024-02-21T03:06:20;3.30;99.90
32215;DHT22;18708;53.124;23.190;2024-02-21T03:08:45;3.20;99.90
32215;DHT22;18708;53.124;23.190;2024-02-21T03:11:11;3.20;99.90
32215;DHT22;18708;53.124;23.190;2024-02-21T03:13:37;3.20;99.90
32215;DHT22;18708;53.124;23.190;2024-02-21T03:16:03;3.20;99.90
32215;DHT22;18708;53.124;23.190;2024-02-21T03:18:29;3.10;99.90
32215;DHT22;18708;53.124;23.190;2024-02-21T03:20:54;3.00;99.90
32215;DHT22;18708;53.124;23.190;2024-02-21T03:23:22;3.00;99.90
32215;DHT22;18708;53.124;23.190;2024-02-21T03:25:48;3.00;99.90
32215;DHT22;18708;53.124;23.190;2024-02-21T03:28:15;3.00;99.90
32215;DHT22;18708;53.124;23.190;2024-02-21T03:30:42;3.00;99.90
32215;DHT22;18708;53.124;23.190;2024-02-21T03:33:08;2.90;99.90
32215;DHT22;18708;53.124;23.190;2024-02-21T03:35:34;2.80;99.90
32215;DHT22;18708;53.124;23.190;2024-02-21T03:37:59;2.80;99.90
32215;DHT22;18708;53.124;23.190;2024-02-21T03:40:25;2.80;99.90
32215;DHT22;18708;53.124;23.190;2024-02-21T03:42:51;2.80;99.90
32215;DHT22;18708;53.124;23.190;2024-02-21T03:45:16;2.70;99.90
32215;DHT22;18708;53.124;23.190;2024-02-21T03:47:42;2.80;99.90
32215;DHT22;18708;53.124;23.190;2024-02-21T03:50:08;2.80;99.90
32215;DHT22;18708;53.124;23.190;2024-02-21T03:52:34;2.80;99.90
32215;DHT22;18708;53.124;23.190;2024-02-21T03:55:00;2.70;99.90
32215;DHT22;18708;53.124;23.190;2024-02-21T03:57:25;2.80;99.90
32215;DHT22;18708;53.124;23.190;2024-02-21T03:59:51;2.80;99.90
32215;DHT22;18708;53.124;23.190;2024-02-21T04:02:17;2.80;99.90
32215;DHT22;18708;53.124;23.190;2024-02-21T04:04:44;2.80;99.90
32215;DHT22;18708;53.124;23.190;2024-02-21T04:07:14;2.70;99.90
32215;DHT22;18708;53.124;23.190;2024-02-21T04:09:39;2.80;99.90
32215;DHT22;18708;53.124;23.190;2024-02-21T04:12:08;2.80;99.90
32215;DHT22;18708;53.124;23.190;2024-02-21T04:14:35;2.90;99.90
32215;DHT22;18708;53.124;23.190;2024-02-21T04:17:00;2.90;99.90
32215;DHT22;18708;53.124;23.190;2024-02-21T04:19:26;2.90;99.90
32215;DHT22;18708;53.124;23.190;2024-02-21T04:21:52;2.80;99.90
32215;DHT22;18708;53.124;23.190;2024-02-21T04:24:17;2.90;99.90
32215;DHT22;18708;53.124;23.190;2024-02-21T04:26:43;2.90;99.90
32215;DHT22;18708;53.124;23.190;2024-02-21T04:29:09;2.90;99.90
32215;DHT22;18708;53.124;23.190;2024-02-21T04:31:35;2.90;99.90
32215;DHT22;18708;53.124;23.190;2024-02-21T04:34:01;3.00;99.90
32215;DHT22;18708;53.124;23.190;2024-02-21T04:36:30;3.00;99.90
32215;DHT22;18708;53.124;23.190;2024-02-21T04:38:56;3.00;99.90
32215;DHT22;18708;53.124;23.190;2024-02-21T04:41:21;3.00;99.90
32215;DHT22;18708;53.124;23.190;2024-02-21T04:43:47;3.10;99.90
32215;DHT22;18708;53.124;23.190;2024-02-21T04:46:13;3.10;99.90
32215;DHT22;18708;53.124;23.190;2024-02-21T04:48:39;3.10;99.90
32215;DHT22;18708;53.124;23.190;2024-02-21T04:51:04;3.20;99.90
32215;DHT22;18708;53.124;23.190;2024-02-21T04:53:30;3.20;99.90
32215;DHT22;18708;53.124;23.190;2024-02-21T04:55:56;3.30;99.90
32215;DHT22;18708;53.124;23.190;2024-02-21T04:58:21;3.20;99.90
32215;DHT22;18708;53.124;23.190;2024-02-21T05:00:47;3.20;99.90
32215;DHT22;18708;53.124;23.190;2024-02-21T05:03:13;3.30;99.90
32215;DHT22;18708;53.124;23.190;2024-02-21T05:05:38;3.30;99.90
32215;DHT22;18708;53.124;23.190;2024-02-21T05:08:04;3.30;99.90
32215;DHT22;18708;53.124;23.190;2024-02-21T05:10:30;3.30;99.90
32215;DHT22;18708;53.124;23.190;2024-02-21T05:12:58;3.30;99.90
32215;DHT22;18708;53.124;23.190;2024-02-21T05:15:24;3.30;99.90
32215;DHT22;18708;53.124;23.190;2024-02-21T05:17:49;3.30;99.90
32215;DHT22;18708;53.124;23.190;2024-02-21T05:20:15;3.30;99.90
32215;DHT22;18708;53.124;23.190;2024-02-21T05:22:41;3.30;99.90
32215;DHT22;18708;53.124;23.190;2024-02-21T05:25:07;3.30;99.90
32215;DHT22;18708;53.124;23.190;2024-02-21T05:27:33;3.30;99.90
32215;DHT22;18708;53.124;23.190;2024-02-21T05:29:59;3.40;99.90
32215;DHT22;18708;53.124;23.190;2024-02-21T05:32:26;3.30;99.90
32215;DHT22;18708;53.124;23.190;2024-02-21T05:34:52;3.30;99.90
32215;DHT22;18708;53.124;23.190;2024-02-21T05:37:17;3.30;99.90
32215;DHT22;18708;53.124;23.190;2024-02-21T05:39:43;3.30;99.90
32215;DHT22;18708;53.124;23.190;2024-02-21T05:42:09;3.30;99.90
32215;DHT22;18708;53.124;23.190;2024-02-21T05:44:35;3.20;99.90
32215;DHT22;18708;53.124;23.190;2024-02-21T05:47:00;3.20;99.90
32215;DHT22;18708;53.124;23.190;2024-02-21T05:49:26;3.20;99.90
32215;DHT22;18708;53.124;23.190;2024-02-21T05:51:52;3.20;99.90
32215;DHT22;18708;53.124;23.190;2024-02-21T05:54:17;3.20;99.90
32215;DHT22;18708;53.124;23.190;2024-02-21T05:56:46;3.20;99.90
32215;DHT22;18708;53.124;23.190;2024-02-21T05:59:12;3.20;99.90
32215;DHT22;18708;53.124;23.190;2024-02-21T06:01:38;3.20;99.90
32215;DHT22;18708;53.124;23.190;2024-02-21T06:04:04;3.20;99.90
32215;DHT22;18708;53.124;23.190;2024-02-21T06:06:30;3.30;99.90
32215;DHT22;18708;53.124;23.190;2024-02-21T06:08:56;3.30;99.90
32215;DHT22;18708;53.124;23.190;2024-02-21T06:11:21;3.40;99.90
32215;DHT22;18708;53.124;23.190;2024-02-21T06:13:47;3.40;99.90
32215;DHT22;18708;53.124;23.190;2024-02-21T06:16:13;3.40;99.90
32215;DHT22;18708;53.124;23.190;2024-02-21T06:18:39;3.40;99.90
32215;DHT22;18708;53.124;23.190;2024-02-21T06:21:07;3.40;99.90
32215;DHT22;18708;53.124;23.190;2024-02-21T06:23:33;3.50;99.90
32215;DHT22;18708;53.124;23.190;2024-02-21T06:25:58;3.50;99.90
32215;DHT22;18708;53.124;23.190;2024-02-21T06:28:26;3.50;99.90
32215;DHT22;18708;53.124;23.190;2024-02-21T06:30:52;3.50;99.90
32215;DHT22;18708;53.124;23.190;2024-02-21T06:33:18;3.50;99.90
32215;DHT22;18708;53.124;23.190;2024-02-21T06:35:43;3.50;99.90
32215;DHT22;18708;53.124;23.190;2024-02-21T06:38:12;3.60;99.90
32215;DHT22;18708;53.124;23.190;2024-02-21T06:40:38;3.60;99.90
32215;DHT22;18708;53.124;23.190;2024-02-21T06:43:05;3.60;99.90
32215;DHT22;18708;53.124;23.190;2024-02-21T06:45:31;3.70;99.90
32215;DHT22;18708;53.124;23.190;2024-02-21T06:47:59;3.70;99.90
32215;DHT22;18708;53.124;23.190;2024-02-21T06:50:25;3.70;99.90
32215;DHT22;18708;53.124;23.190;2024-02-21T06:52:50;3.70;99.90
32215;DHT22;18708;53.124;23.190;2024-02-21T06:55:16;3.70;99.90
32215;DHT22;18708;53.124;23.190;2024-02-21T06:57:42;3.70;99.90
32215;DHT22;18708;53.124;23.190;2024-02-21T07:00:08;3.80;99.90
32215;DHT22;18708;53.124;23.190;2024-02-21T07:02:34;3.90;99.90
32215;DHT22;18708;53.124;23.190;2024-02-21T07:05:00;3.90;99.90
32215;DHT22;18708;53.124;23.190;2024-02-21T07:07:25;3.90;99.90
32215;DHT22;18708;53.124;23.190;2024-02-21T07:09:51;3.90;99.90
32215;DHT22;18708;53.124;23.190;2024-02-21T07:12:18;3.90;99.90
32215;DHT22;18708;53.124;23.190;2024-02-21T07:14:44;3.90;99.90
32215;DHT22;18708;53.124;23.190;2024-02-21T07:17:10;3.90;99.90
32215;DHT22;18708;53.124;23.190;2024-02-21T07:19:36;3.90;99.90
32215;DHT22;18708;53.124;23.190;2024-02-21T07:22:01;3.90;99.90
32215;DHT22;18708;53.124;23.190;2024-02-21T07:24:27;3.90;99.90
32215;DHT22;18708;53.124;23.190;2024-02-21T07:26:53;3.90;99.90
32215;DHT22;18708;53.124;23.190;2024-02-21T07:29:19;3.90;99.90
32215;DHT22;18708;53.124;23.190;2024-02-21T07:31:44;4.00;99.90
32215;DHT22;18708;53.124;23.190;2024-02-21T07:34:11;4.00;99.90
32215;DHT22;18708;53.124;23.190;2024-02-21T07:36:36;4.10;99.90
32215;DHT22;18708;53.124;23.190;2024-02-21T07:39:05;4.10;99.90
32215;DHT22;18708;53.124;23.190;2024-02-21T07:41:31;4.10;99.90
32215;DHT22;18708;53.124;23.190;2024-02-21T07:43:57;4.20;99.90
32215;DHT22;18708;53.124;23.190;2024-02-21T07:46:22;4.10;99.90
32215;DHT22;18708;53.124;23.190;2024-02-21T07:48:48;4.20;99.90
32215;DHT22;18708;53.124;23.190;2024-02-21T07:51:14;4.10;99.90
32215;DHT22;18708;53.124;23.190;2024-02-21T07:53:43;4.10;99.90
32215;DHT22;18708;53.124;23.190;2024-02-21T07:56:15;4.20;99.90
32215;DHT22;18708;53.124;23.190;2024-02-21T07:58:42;4.20;99.90
32215;DHT22;18708;53.124;23.190;2024-02-21T08:01:08;4.20;99.90
32215;DHT22;18708;53.124;23.190;2024-02-21T08:03:34;4.20;99.90
32215;DHT22;18708;53.124;23.190;2024-02-21T08:06:00;4.20;99.90
32215;DHT22;18708;53.124;23.190;2024-02-21T08:08:26;4.20;99.90
32215;DHT22;18708;53.124;23.190;2024-02-21T08:10:52;4.20;99.90
32215;DHT22;18708;53.124;23.190;2024-02-21T08:13:17;4.30;99.90
32215;DHT22;18708;53.124;23.190;2024-02-21T08:15:43;4.30;99.90
32215;DHT22;18708;53.124;23.190;2024-02-21T08:18:09;4.30;99.90
32215;DHT22;18708;53.124;23.190;2024-02-21T08:20:35;4.30;99.90
32215;DHT22;18708;53.124;23.190;2024-02-21T08:23:01;4.30;99.90
32215;DHT22;18708;53.124;23.190;2024-02-21T08:25:27;4.40;99.90
32215;DHT22;18708;53.124;23.190;2024-02-21T08:27:57;4.40;99.90
32215;DHT22;18708;53.124;23.190;2024-02-21T08:30:23;4.40;99.90
32215;DHT22;18708;53.124;23.190;2024-02-21T08:32:49;4.50;99.90
32215;DHT22;18708;53.124;23.190;2024-02-21T08:35:14;4.50;99.90
32215;DHT22;18708;53.124;23.190;2024-02-21T08:37:40;4.50;99.90
32215;DHT22;18708;53.124;23.190;2024-02-21T08:40:06;4.70;99.90
32215;DHT22;18708;53.124;23.190;2024-02-21T08:42:35;4.80;99.90
32215;DHT22;18708;53.124;23.190;2024-02-21T08:45:01;4.90;99.90
32215;DHT22;18708;53.124;23.190;2024-02-21T08:47:27;5.00;99.90
32215;DHT22;18708;53.124;23.190;2024-02-21T08:49:52;5.10;99.90
32215;DHT22;18708;53.124;23.190;2024-02-21T08:52:18;5.10;99.90
32215;DHT22;18708;53.124;23.190;2024-02-21T08:54:44;5.20;99.90
32215;DHT22;18708;53.124;23.190;2024-02-21T08:57:09;5.30;99.90
32215;DHT22;18708;53.124;23.190;2024-02-21T08:59:35;5.20;99.90
32215;DHT22;18708;53.124;23.190;2024-02-21T09:02:01;5.30;99.90
32215;DHT22;18708;53.124;23.190;2024-02-21T09:04:28;5.40;99.90
32215;DHT22;18708;53.124;23.190;2024-02-21T09:06:54;5.30;99.90
32215;DHT22;18708;53.124;23.190;2024-02-21T09:09:19;5.40;99.90
32215;DHT22;18708;53.124;23.190;2024-02-21T09:11:45;5.40;99.90
32215;DHT22;18708;53.124;23.190;2024-02-21T09:14:11;5.40;99.90
32215;DHT22;18708;53.124;23.190;2024-02-21T09:16:37;5.50;99.90
32215;DHT22;18708;53.124;23.190;2024-02-21T09:19:03;5.50;99.90
32215;DHT22;18708;53.124;23.190;2024-02-21T09:21:28;5.50;99.90
32215;DHT22;18708;53.124;23.190;2024-02-21T09:23:54;5.30;99.90
32215;DHT22;18708;53.124;23.190;2024-02-21T09:26:20;5.40;99.90
32215;DHT22;18708;53.124;23.190;2024-02-21T09:28:46;5.20;99.90
32215;DHT22;18708;53.124;23.190;2024-02-21T09:31:11;5.20;99.90
32215;DHT22;18708;53.124;23.190;2024-02-21T09:33:37;5.20;99.90
32215;DHT22;18708;53.124;23.190;2024-02-21T09:36:03;5.30;99.90
32215;DHT22;18708;53.124;23.190;2024-02-21T09:38:31;5.30;99.90
32215;DHT22;18708;53.124;23.190;2024-02-21T09:41:16;5.40;99.90
32215;DHT22;18708;53.124;23.190;2024-02-21T09:43:45;5.40;99.90
32215;DHT22;18708;53.124;23.190;2024-02-21T09:46:18;5.40;99.90
32215;DHT22;18708;53.124;23.190;2024-02-21T09:51:14;5.40;99.90
32215;DHT22;18708;53.124;23.190;2024-02-21T09:53:40;5.40;99.90
32215;DHT22;18708;53.124;23.190;2024-02-21T09:56:10;5.50;99.90
32215;DHT22;18708;53.124;23.190;2024-02-21T09:58:37;5.50;99.90
32215;DHT22;18708;53.124;23.190;2024-02-21T10:01:03;5.50;99.90
32215;DHT22;18708;53.124;23.190;2024-02-21T10:03:32;5.50;99.90
32215;DHT22;18708;53.124;23.190;2024-02-21T10:05:59;5.60;99.90
32215;DHT22;18708;53.124;23.190;2024-02-21T10:08:26;5.70;99.90
32215;DHT22;18708;53.124;23.190;2024-02-21T10:10:52;5.80;99.90
32215;DHT22;18708;53.124;23.190;2024-02-21T10:13:29;5.80;99.90
32215;DHT22;18708;53.124;23.190;2024-02-21T10:16:07;5.80;99.90
32215;DHT22;18708;53.124;23.190;2024-02-21T10:18:34;5.80;99.90
32215;DHT22;18708;53.124;23.190;2024-02-21T10:21:01;5.70;99.90
32215;DHT22;18708;53.124;23.190;2024-02-21T10:23:27;5.70;99.90
32215;DHT22;18708;53.124;23.190;2024-02-21T10:26:05;5.70;99.90
32215;DHT22;18708;53.124;23.190;2024-02-21T10:28:31;5.80;99.90
32215;DHT22;18708;53.124;23.190;2024-02-21T10:30:57;5.70;99.90
32215;DHT22;18708;53.124;23.190;2024-02-21T10:33:22;5.70;99.90
32215;DHT22;18708;53.124;23.190;2024-02-21T10:35:50;5.70;99.90
32215;DHT22;18708;53.124;23.190;2024-02-21T10:38:16;5.80;99.90
32215;DHT22;18708;53.124;23.190;2024-02-21T10:40:42;5.80;99.90
32215;DHT22;18708;53.124;23.190;2024-02-21T10:43:12;5.90;99.90
32215;DHT22;18708;53.124;23.190;2024-02-21T10:45:39;5.80;99.90
32215;DHT22;18708;53.124;23.190;2024-02-21T10:48:12;5.80;99.90
32215;DHT22;18708;53.124;23.190;2024-02-21T10:51:01;5.80;99.90
32215;DHT22;18708;53.124;23.190;2024-02-21T10:58:45;5.90;99.90
32215;DHT22;18708;53.124;23.190;2024-02-21T11:01:12;6.00;99.90
32215;DHT22;18708;53.124;23.190;2024-02-21T11:03:41;6.00;99.90
32215;DHT22;18708;53.124;23.190;2024-02-21T11:06:11;6.00;99.90
32215;DHT22;18708;53.124;23.190;2024-02-21T11:08:37;6.10;99.90
32215;DHT22;18708;53.124;23.190;2024-02-21T11:11:04;6.10;99.90
32215;DHT22;18708;53.124;23.190;2024-02-21T11:13:31;6.10;99.90
32215;DHT22;18708;53.124;23.190;2024-02-21T11:16:10;6.00;99.90
32215;DHT22;18708;53.124;23.190;2024-02-21T11:18:39;6.10;99.90
32215;DHT22;18708;53.124;23.190;2024-02-21T11:21:05;6.20;99.90
32215;DHT22;18708;53.124;23.190;2024-02-21T11:23:31;6.30;99.90
32215;DHT22;18708;53.124;23.190;2024-02-21T11:26:08;6.40;99.90
32215;DHT22;18708;53.124;23.190;2024-02-21T11:28:34;6.50;99.90
32215;DHT22;18708;53.124;23.190;2024-02-21T11:33:34;6.50;99.90
32215;DHT22;18708;53.124;23.190;2024-02-21T11:36:01;6.50;99.90
32215;DHT22;18708;53.124;23.190;2024-02-21T11:38:27;6.40;99.90
32215;DHT22;18708;53.124;23.190;2024-02-21T11:40:52;6.30;99.90
32215;DHT22;18708;53.124;23.190;2024-02-21T11:43:18;6.40;99.90
32215;DHT22;18708;53.124;23.190;2024-02-21T11:45:43;6.40;99.90
32215;DHT22;18708;53.124;23.190;2024-02-21T11:48:09;6.40;99.90
32215;DHT22;18708;53.124;23.190;2024-02-21T11:50:35;6.30;99.90
32215;DHT22;18708;53.124;23.190;2024-02-21T11:53:02;6.30;99.90
32215;DHT22;18708;53.124;23.190;2024-02-21T11:55:31;6.40;99.90
32215;DHT22;18708;53.124;23.190;2024-02-21T11:57:56;6.40;99.90
32215;DHT22;18708;53.124;23.190;2024-02-21T12:00:22;6.50;99.90
32215;DHT22;18708;53.124;23.190;2024-02-21T12:02:50;6.50;99.90
32215;DHT22;18708;53.124;23.190;2024-02-21T12:05:16;6.40;99.90
32215;DHT22;18708;53.124;23.190;2024-02-21T12:07:42;6.40;99.90
32215;DHT22;18708;53.124;23.190;2024-02-21T12:10:12;6.40;99.90
32215;DHT22;18708;53.124;23.190;2024-02-21T12:12:38;6.50;99.90
32215;DHT22;18708;53.124;23.190;2024-02-21T12:15:05;6.50;99.90
32215;DHT22;18708;53.124;23.190;2024-02-21T12:17:33;6.60;99.90
32215;DHT22;18708;53.124;23.190;2024-02-21T12:20:00;6.60;99.90
32215;DHT22;18708;53.124;23.190;2024-02-21T12:22:26;6.50;99.90
32215;DHT22;18708;53.124;23.190;2024-02-21T12:24:52;6.50;99.90
32215;DHT22;18708;53.124;23.190;2024-02-21T12:27:18;6.60;99.90
32215;DHT22;18708;53.124;23.190;2024-02-21T12:29:43;6.50;99.90
32215;DHT22;18708;53.124;23.190;2024-02-21T12:32:09;6.60;99.90
32215;DHT22;18708;53.124;23.190;2024-02-21T12:34:35;6.60;99.90
32215;DHT22;18708;53.124;23.190;2024-02-21T12:37:04;6.70;99.90
32215;DHT22;18708;53.124;23.190;2024-02-21T12:39:30;6.70;99.90
32215;DHT22;18708;53.124;23.190;2024-02-21T12:41:57;6.70;99.90
32215;DHT22;18708;53.124;23.190;2024-02-21T12:44:22;6.70;99.90
32215;DHT22;18708;53.124;23.190;2024-02-21T12:46:49;6.80;99.90
32215;DHT22;18708;53.124;23.190;2024-02-21T12:49:18;6.90;99.90
32215;DHT22;18708;53.124;23.190;2024-02-21T12:51:44;7.00;99.90
32215;DHT22;18708;53.124;23.190;2024-02-21T12:54:13;7.00;99.90
32215;DHT22;18708;53.124;23.190;2024-02-21T12:56:39;7.00;99.90
32215;DHT22;18708;53.124;23.190;2024-02-21T12:59:05;7.00;99.90
32215;DHT22;18708;53.124;23.190;2024-02-21T13:01:35;6.80;99.90
32215;DHT22;18708;53.124;23.190;2024-02-21T13:04:01;6.70;99.90
32215;DHT22;18708;53.124;23.190;2024-02-21T13:06:27;6.70;99.90
32215;DHT22;18708;53.124;23.190;2024-02-21T13:08:53;6.70;99.90
32215;DHT22;18708;53.124;23.190;2024-02-21T13:11:19;6.70;99.90
32215;DHT22;18708;53.124;23.190;2024-02-21T13:13:47;6.70;99.90
32215;DHT22;18708;53.124;23.190;2024-02-21T13:16:16;6.70;99.90
32215;DHT22;18708;53.124;23.190;2024-02-21T13:18:41;6.60;99.90
32215;DHT22;18708;53.124;23.190;2024-02-21T13:21:08;6.60;99.90
32215;DHT22;18708;53.124;23.190;2024-02-21T13:23:34;6.60;99.90
32215;DHT22;18708;53.124;23.190;2024-02-21T13:25:59;6.50;99.90
32215;DHT22;18708;53.124;23.190;2024-02-21T13:28:25;6.50;99.90
32215;DHT22;18708;53.124;23.190;2024-02-21T13:30:51;6.60;99.90
32215;DHT22;18708;53.124;23.190;2024-02-21T13:33:16;6.40;99.90
32215;DHT22;18708;53.124;23.190;2024-02-21T13:35:42;6.50;99.90
32215;DHT22;18708;53.124;23.190;2024-02-21T13:38:08;6.50;99.90
32215;DHT22;18708;53.124;23.190;2024-02-21T13:40:35;6.50;99.90
32215;DHT22;18708;53.124;23.190;2024-02-21T13:43:01;6.50;99.90
32215;DHT22;18708;53.124;23.190;2024-02-21T13:45:26;6.60;99.90
32215;DHT22;18708;53.124;23.190;2024-02-21T13:47:52;6.60;99.90
32215;DHT22;18708;53.124;23.190;2024-02-21T13:50:19;6.60;99.90
32215;DHT22;18708;53.124;23.190;2024-02-21T13:52:45;6.60;99.90
32215;DHT22;18708;53.124;23.190;2024-02-21T13:55:12;6.60;99.90
32215;DHT22;18708;53.124;23.190;2024-02-21T13:57:38;6.60;99.90
32215;DHT22;18708;53.124;23.190;2024-02-21T14:00:04;6.60;99.90
32215;DHT22;18708;53.124;23.190;2024-02-21T14:02:31;6.60;99.90
32215;DHT22;18708;53.124;23.190;2024-02-21T14:04:57;6.50;99.90
32215;DHT22;18708;53.124;23.190;2024-02-21T14:07:22;6.60;99.90
32215;DHT22;18708;53.124;23.190;2024-02-21T14:09:48;6.50;99.90
32215;DHT22;18708;53.124;23.190;2024-02-21T14:12:14;6.50;99.90
32215;DHT22;18708;53.124;23.190;2024-02-21T14:14:43;6.60;99.90
32215;DHT22;18708;53.124;23.190;2024-02-21T14:17:09;6.50;99.90
32215;DHT22;18708;53.124;23.190;2024-02-21T14:19:37;6.40;99.90
32215;DHT22;18708;53.124;23.190;2024-02-21T14:22:03;6.40;99.90
32215;DHT22;18708;53.124;23.190;2024-02-21T14:24:29;6.40;99.90
32215;DHT22;18708;53.124;23.190;2024-02-21T14:26:54;6.40;99.90
32215;DHT22;18708;53.124;23.190;2024-02-21T14:29:21;6.40;99.90
32215;DHT22;18708;53.124;23.190;2024-02-21T14:31:47;6.30;99.90
32215;DHT22;18708;53.124;23.190;2024-02-21T14:34:15;6.30;99.90
32215;DHT22;18708;53.124;23.190;2024-02-21T14:36:40;6.40;99.90
32215;DHT22;18708;53.124;23.190;2024-02-21T14:39:06;6.40;99.90
32215;DHT22;18708;53.124;23.190;2024-02-21T14:41:32;6.30;99.90
32215;DHT22;18708;53.124;23.190;2024-02-21T14:43:57;6.40;99.90
32215;DHT22;18708;53.124;23.190;2024-02-21T14:46:25;6.30;99.90
32215;DHT22;18708;53.124;23.190;2024-02-21T14:48:56;6.30;99.90
32215;DHT22;18708;53.124;23.190;2024-02-21T14:51:23;6.30;99.90
32215;DHT22;18708;53.124;23.190;2024-02-21T14:53:49;6.30;99.90
32215;DHT22;18708;53.124;23.190;2024-02-21T14:56:15;6.30;99.90
32215;DHT22;18708;53.124;23.190;2024-02-21T14:58:41;6.30;99.90
32215;DHT22;18708;53.124;23.190;2024-02-21T15:01:10;6.30;99.90
32215;DHT22;18708;53.124;23.190;2024-02-21T15:03:38;6.30;99.90
32215;DHT22;18708;53.124;23.190;2024-02-21T15:06:04;6.20;99.90
32215;DHT22;18708;53.124;23.190;2024-02-21T15:08:29;6.20;99.90
32215;DHT22;18708;53.124;23.190;2024-02-21T15:10:55;6.20;99.90
32215;DHT22;18708;53.124;23.190;2024-02-21T15:13:21;6.20;99.90
32215;DHT22;18708;53.124;23.190;2024-02-21T15:15:48;6.20;99.90
32215;DHT22;18708;53.124;23.190;2024-02-21T15:18:14;6.20;99.90
32215;DHT22;18708;53.124;23.190;2024-02-21T15:20:44;6.20;99.90
32215;DHT22;18708;53.124;23.190;2024-02-21T15:23:10;6.20;99.90
32215;DHT22;18708;53.124;23.190;2024-02-21T15:25:44;6.10;99.90
32215;DHT22;18708;53.124;23.190;2024-02-21T15:28:10;6.10;99.90
32215;DHT22;18708;53.124;23.190;2024-02-21T15:30:36;6.10;99.90
32215;DHT22;18708;53.124;23.190;2024-02-21T15:33:01;6.10;99.90
32215;DHT22;18708;53.124;23.190;2024-02-21T15:35:28;6.10;99.90